Time;durP1;ratioP1;P1;durP2;ratioP2;P2;SDS_P1;SDS_P2;PMS_P1;PMS_P2;Temp;Humidity;BMP_temperature;BMP_pressure;BME280_temperature;BME280_humidity;BME280_pressure;Samples;Min_cycle;Max_cycle;Signal;HPM_P1;HPM_P2
2021/03/08 00:00:35;;;;;;;30.38;16.42;;;;;;;24.13;20.70;98410.19;5092456;28;20426;-43
2021/03/08 00:03:03;;;;;;;27.45;16.15;;;;;;;24.12;20.70;98407.78;5091831;28;20412;-41
2021/03/08 00:05:28;;;;;;;29.10;17.13;;;;;;;24.14;20.69;98411.00;5090510;28;20031;-39
2021/03/08 00:07:54;;;;;;;27.80;16.25;;;;;;;24.14;20.72;98411.00;5092415;28;20475;-40
2021/03/08 00:10:20;;;;;;;25.17;14.95;;;;;;;24.15;21.01;98407.03;5088786;28;20024;-43
2021/03/08 00:12:48;;;;;;;27.20;14.63;;;;;;;24.17;20.75;98410.22;5090881;28;20031;-41
2021/03/08 00:15:14;;;;;;;26.20;14.77;;;;;;;24.18;20.69;98421.03;5084080;28;20485;-41
2021/03/08 00:17:40;;;;;;;24.73;14.73;;;;;;;24.20;20.52;98409.47;5070674;28;20429;-40
2021/03/08 00:20:08;;;;;;;24.48;14.55;;;;;;;24.21;20.82;98413.88;5082649;28;20024;-40
2021/03/08 00:22:34;;;;;;;25.90;15.00;;;;;;;24.21;20.91;98411.06;5088966;28;20503;-40
2021/03/08 00:25:00;;;;;;;24.75;14.43;;;;;;;24.21;20.90;98411.84;5090889;28;20031;-40
2021/03/08 00:27:25;;;;;;;22.40;13.75;;;;;;;24.22;20.76;98419.06;5091082;28;20028;-42
2021/03/08 00:29:51;;;;;;;24.35;14.48;;;;;;;24.23;20.79;98422.69;5093737;28;20013;-40
2021/03/08 00:32:16;;;;;;;22.73;13.30;;;;;;;24.22;20.89;98418.28;5090205;28;20456;-40
2021/03/08 00:34:42;;;;;;;23.83;14.43;;;;;;;24.21;20.90;98419.47;5089744;28;20024;-40
2021/03/08 00:37:07;;;;;;;23.85;14.40;;;;;;;24.20;20.76;98415.06;5069698;28;20032;-40
2021/03/08 00:39:33;;;;;;;23.55;13.55;;;;;;;24.19;20.96;98419.06;5088437;28;20021;-41
2021/03/08 00:41:58;;;;;;;21.98;13.23;;;;;;;24.18;21.00;98414.66;5091825;28;20036;-46
2021/03/08 00:44:25;;;;;;;22.75;12.90;;;;;;;24.18;21.05;98418.25;5090912;28;20055;-43
2021/03/08 00:46:50;;;;;;;22.75;12.43;;;;;;;24.17;20.97;98413.81;5087968;28;20028;-40
2021/03/08 00:49:16;;;;;;;22.40;12.73;;;;;;;24.19;21.19;98416.25;5087335;28;20050;-41
2021/03/08 00:51:42;;;;;;;20.95;12.02;;;;;;;24.19;21.02;98410.66;5085569;28;20107;-40
2021/03/08 00:54:08;;;;;;;22.77;13.40;;;;;;;24.19;21.17;98405.84;5090553;28;20113;-43
2021/03/08 00:56:33;;;;;;;21.17;12.48;;;;;;;24.21;21.11;98413.88;5086778;28;20085;-42
2021/03/08 00:58:59;;;;;;;21.05;12.48;;;;;;;24.22;21.15;98409.88;5087978;28;20034;-43
2021/03/08 01:01:25;;;;;;;19.00;11.70;;;;;;;24.22;21.12;98405.06;5089108;28;20121;-40
2021/03/08 01:03:50;;;;;;;20.70;12.40;;;;;;;24.24;21.09;98404.69;5088353;28;20028;-41
2021/03/08 01:06:15;;;;;;;20.02;11.90;;;;;;;24.26;21.04;98404.28;5094348;28;20384;-45
2021/03/08 01:08:41;;;;;;;20.02;11.98;;;;;;;24.28;20.93;98404.69;5073508;28;20154;-42
2021/03/08 01:11:07;;;;;;;20.10;11.65;;;;;;;24.29;20.99;98407.09;5087344;28;20280;-44
2021/03/08 01:13:33;;;;;;;19.50;11.18;;;;;;;24.31;21.09;98395.50;5090470;28;20025;-41
2021/03/08 01:15:58;;;;;;;16.60;10.55;;;;;;;24.33;20.88;98393.13;5093040;28;20066;-44
2021/03/08 01:18:24;;;;;;;19.08;11.07;;;;;;;24.34;20.95;98394.72;5091466;28;20024;-41
2021/03/08 01:20:49;;;;;;;18.33;10.77;;;;;;;24.35;20.97;98393.53;5089295;28;20028;-42
2021/03/08 01:23:15;;;;;;;16.50;10.35;;;;;;;24.36;20.94;98387.53;5091476;28;20024;-41
2021/03/08 01:25:41;;;;;;;17.00;10.23;;;;;;;24.37;20.97;98393.97;5092165;28;20116;-45
2021/03/08 01:28:07;;;;;;;16.90;9.82;;;;;;;24.38;20.84;98378.75;5091548;28;20035;-41
2021/03/08 01:30:44;;;;;;;20.33;11.05;;;;;;;24.38;20.92;98379.53;5089965;28;20019;-41
2021/03/08 01:33:09;;;;;;;17.20;9.93;;;;;;;24.38;20.78;98370.34;5095223;28;20024;-43
2021/03/08 01:35:36;;;;;;;15.60;9.32;;;;;;;24.38;21.03;98371.13;5090751;28;20024;-40
2021/03/08 01:38:02;;;;;;;17.98;10.25;;;;;;;24.37;20.76;98369.53;5077762;28;20062;-41
2021/03/08 01:40:29;;;;;;;15.15;9.57;;;;;;;24.37;20.88;98363.13;5090952;28;20107;-41
2021/03/08 01:42:56;;;;;;;16.17;10.25;;;;;;;24.36;21.19;98367.13;5090921;28;20086;-45
2021/03/08 01:45:22;;;;;;;16.45;9.65;;;;;;;24.36;20.92;98367.13;5093832;28;20050;-45
2021/03/08 01:47:49;;;;;;;17.23;9.98;;;;;;;24.34;20.92;98361.09;5087144;28;20039;-42
2021/03/08 01:50:21;;;;;;;16.00;9.65;;;;;;;24.33;20.89;98362.31;5087459;28;20116;-41
2021/03/08 01:52:47;;;;;;;15.38;9.35;;;;;;;24.32;20.94;98364.28;5086626;28;20052;-40
2021/03/08 01:55:13;;;;;;;16.48;9.75;;;;;;;24.30;21.04;98360.28;5093713;28;20423;-42
2021/03/08 01:57:39;;;;;;;14.77;8.93;;;;;;;24.29;20.84;98359.47;5097815;28;20015;-41
2021/03/08 02:00:06;;;;;;;14.85;8.82;;;;;;;24.28;20.99;98357.84;5092328;28;20027;-39
2021/03/08 02:02:32;;;;;;;14.85;9.07;;;;;;;24.27;20.91;98361.06;5094286;28;20028;-41
2021/03/08 02:04:57;;;;;;;14.75;8.73;;;;;;;24.28;21.01;98351.44;5075488;28;20104;-42
2021/03/08 02:07:23;;;;;;;13.60;8.52;;;;;;;24.27;20.83;98352.66;5095076;28;20024;-42
2021/03/08 02:09:48;;;;;;;15.82;8.60;;;;;;;24.27;21.05;98347.03;5086426;28;20037;-43
2021/03/08 02:12:24;;;;;;;13.52;8.70;;;;;;;24.26;21.11;98343.41;5093303;28;20028;-40
2021/03/08 02:15:03;;;;;;;14.50;8.43;;;;;;;24.27;21.09;98344.25;5090963;28;20022;-41
2021/03/08 02:17:43;;;;;;;14.63;8.90;;;;;;;24.27;21.15;98350.63;5081682;28;20074;-42
2021/03/08 02:20:36;;;;;;;14.07;8.18;;;;;;;24.28;21.25;98348.66;5082140;28;20335;-40
2021/03/08 02:23:10;;;;;;;13.50;8.65;;;;;;;24.28;21.14;98352.25;5090303;28;20113;-41
2021/03/08 02:25:35;;;;;;;12.57;7.95;;;;;;;24.30;21.24;98341.44;5092543;28;20032;-43
2021/03/08 02:28:35;;;;;;;12.45;8.10;;;;;;;24.32;21.24;98346.69;5090453;28;20050;-42
2021/03/08 02:31:08;;;;;;;15.38;8.75;;;;;;;24.33;21.19;98337.06;5083827;28;20047;-41
2021/03/08 02:33:36;;;;;;;13.77;8.38;;;;;;;24.35;21.36;98341.09;5096085;28;20020;-39
2021/03/08 02:36:06;;;;;;;13.27;8.32;;;;;;;24.38;21.24;98340.28;5091033;28;20024;-39
2021/03/08 02:38:35;;;;;;;14.60;8.23;;;;;;;24.42;21.12;98343.13;5096614;28;20024;-39
2021/03/08 02:41:11;;;;;;;13.52;8.00;;;;;;;24.45;21.23;98347.13;5093916;28;20522;-40
2021/03/08 02:43:42;;;;;;;14.25;8.30;;;;;;;24.48;21.20;98340.75;5083808;28;20042;-39
2021/03/08 02:46:13;;;;;;;15.02;8.25;;;;;;;24.49;21.25;98340.34;5089031;28;20047;-37
2021/03/08 02:48:42;;;;;;;13.65;8.52;;;;;;;24.51;21.18;98342.78;5087157;28;20040;-42
2021/03/08 02:51:09;;;;;;;14.48;9.20;;;;;;;24.49;20.90;98343.16;5088215;28;20025;-40
2021/03/08 02:53:37;;;;;;;14.43;9.15;;;;;;;24.49;21.05;98342.34;5111565;28;20042;-38
2021/03/08 02:56:07;;;;;;;15.80;8.77;;;;;;;24.48;20.84;98335.94;5091676;28;20030;-56
2021/03/08 02:58:35;;;;;;;18.85;12.55;;;;;;;24.47;21.00;98333.53;5064886;28;20081;-40
2021/03/08 03:01:02;;;;;;;22.02;13.60;;;;;;;24.45;21.19;98330.31;5058551;28;20434;-40
2021/03/08 03:03:32;;;;;;;20.58;13.80;;;;;;;24.42;21.11;98339.50;5062038;28;20484;-44
2021/03/08 03:06:00;;;;;;;21.65;14.57;;;;;;;24.42;21.11;98337.53;5067307;28;20496;-40
2021/03/08 03:08:28;;;;;;;24.08;14.25;;;;;;;24.36;21.09;98328.69;5068068;28;20120;-43
2021/03/08 03:10:55;;;;;;;21.35;13.77;;;;;;;24.33;21.02;98337.88;5065655;28;20047;-53
2021/03/08 03:13:24;;;;;;;23.73;14.70;;;;;;;24.30;20.83;98333.03;5065436;28;20040;-46
2021/03/08 03:15:52;;;;;;;23.75;15.23;;;;;;;24.28;21.03;98317.81;5066133;28;20103;-49
2021/03/08 03:18:18;;;;;;;22.50;15.15;;;;;;;24.23;20.99;98328.22;5068341;28;20111;-45
2021/03/08 03:20:46;;;;;;;42.75;18.73;;;;;;;24.19;21.06;98324.59;5063571;28;20083;-49
2021/03/08 03:23:13;;;;;;;49.28;21.40;;;;;;;24.19;21.00;98326.59;5088016;28;20476;-40
2021/03/08 03:25:41;;;;;;;46.05;21.08;;;;;;;24.17;21.03;98329.78;5099080;28;20523;-41
2021/03/08 03:28:07;;;;;;;37.75;20.27;;;;;;;24.16;20.90;98328.16;5099997;28;20024;-46
2021/03/08 03:30:34;;;;;;;41.38;20.70;;;;;;;24.13;20.97;98323.34;5101211;28;20107;-45
2021/03/08 03:33:01;;;;;;;41.78;19.52;;;;;;;24.14;21.03;98324.16;5092064;28;20016;-46
2021/03/08 03:35:28;;;;;;;31.77;18.38;;;;;;;24.13;20.87;98322.56;5072720;28;20608;-42
2021/03/08 03:37:56;;;;;;;36.58;18.20;;;;;;;24.12;20.91;98320.94;5092538;28;20095;-45
2021/03/08 03:40:22;;;;;;;37.65;18.25;;;;;;;24.11;20.80;98325.72;5092625;28;20024;-42
2021/03/08 03:42:49;;;;;;;30.70;19.02;;;;;;;24.11;20.86;98331.34;5092448;28;20035;-44
2021/03/08 03:45:16;;;;;;;31.92;18.90;;;;;;;24.11;20.79;98336.16;5091727;28;20059;-44
2021/03/08 03:47:42;;;;;;;31.80;19.02;;;;;;;24.10;20.63;98326.13;5092319;28;20027;-43
2021/03/08 03:50:11;;;;;;;33.03;19.17;;;;;;;24.10;20.61;98334.53;5092536;28;20028;-43
2021/03/08 03:52:36;;;;;;;35.45;19.25;;;;;;;24.09;20.50;98330.91;5105596;28;20421;-48
2021/03/08 03:55:04;;;;;;;30.60;17.73;;;;;;;24.07;20.56;98339.72;5093452;28;20091;-42
2021/03/08 03:57:39;;;;;;;29.77;18.85;;;;;;;24.05;20.50;98339.31;5110064;28;20027;-48
2021/03/08 04:00:07;;;;;;;29.88;18.67;;;;;;;24.03;20.41;98344.50;5112789;28;20038;-44
2021/03/08 04:02:42;;;;;;;29.25;18.00;;;;;;;24.01;20.43;98335.69;5112555;28;20031;-46
2021/03/08 04:05:11;;;;;;;29.63;19.20;;;;;;;24.00;20.32;98336.09;5111905;28;20031;-44
2021/03/08 04:07:40;;;;;;;29.75;18.90;;;;;;;23.98;20.26;98341.25;5112515;28;20035;-48
2021/03/08 04:10:09;;;;;;;25.98;17.63;;;;;;;23.93;20.33;98336.78;5112579;28;20091;-45
2021/03/08 04:12:36;;;;;;;;;;;;;;;23.90;20.29;98349.59;5112943;28;20516;-45
2021/03/08 04:15:06;;;;;;;28.30;17.15;;;;;;;23.86;20.27;98348.75;5111635;28;20000;-42
2021/03/08 04:17:37;;;;;;;27.45;17.52;;;;;;;23.83;20.24;98341.13;5112254;28;20027;-48
2021/03/08 04:20:05;;;;;;;25.77;17.33;;;;;;;23.78;20.31;98331.09;5112199;28;20024;-45
2021/03/08 04:22:32;;;;;;;27.13;17.93;;;;;;;23.77;20.17;98334.28;5109082;28;20031;-49
2021/03/08 04:24:59;;;;;;;25.58;17.30;;;;;;;23.76;20.26;98339.09;5112171;28;20046;-46
2021/03/08 04:27:25;;;;;;;22.65;15.25;;;;;;;23.74;20.01;98330.28;5112033;28;20686;-45
2021/03/08 04:29:51;;;;;;;24.15;15.23;;;;;;;23.73;20.14;98337.06;5112045;28;20020;-45
2021/03/08 04:32:18;;;;;;;24.75;17.02;;;;;;;23.73;20.05;98339.03;5111892;28;20089;-43
2021/03/08 04:34:45;;;;;;;24.13;15.25;;;;;;;23.74;20.01;98340.66;5112012;28;20024;-43
2021/03/08 04:37:14;;;;;;;22.10;15.60;;;;;;;23.73;20.01;98339.88;5111861;28;20031;-47
2021/03/08 04:39:41;;;;;;;;;;;;;;;23.74;20.04;98337.84;5112419;28;20098;-47
2021/03/08 04:42:07;;;;;;;22.85;14.93;;;;;;;23.72;20.00;98338.25;5111787;28;19911;-45
2021/03/08 04:44:38;;;;;;;21.08;14.57;;;;;;;23.71;19.97;98347.03;5111244;28;20097;-45
2021/03/08 04:47:04;;;;;;;21.88;14.35;;;;;;;23.70;19.99;98351.00;5111968;28;20067;-43
2021/03/08 04:49:33;;;;;;;21.00;14.60;;;;;;;23.69;20.10;98353.03;5111763;28;20460;-43
2021/03/08 04:51:59;;;;;;;21.93;14.97;;;;;;;23.68;19.90;98356.19;5112127;28;20035;-46
2021/03/08 04:54:25;;;;;;;19.83;13.95;;;;;;;23.68;19.82;98353.41;5088315;28;20464;-46
2021/03/08 04:56:52;;;;;;;22.70;14.98;;;;;;;23.67;19.91;98355.41;5091288;28;20040;-46
2021/03/08 04:59:18;;;;;;;21.13;13.73;;;;;;;23.67;19.84;98360.19;5091105;28;20111;-45
2021/03/08 05:01:45;;;;;;;20.90;13.95;;;;;;;23.67;19.84;98368.59;5091263;28;20460;-46
2021/03/08 05:04:12;;;;;;;19.48;13.30;;;;;;;23.66;19.86;98367.78;5091092;28;20391;-47
2021/03/08 05:06:40;;;;;;;19.73;13.07;;;;;;;23.66;19.80;98359.41;5092873;28;20536;-43
2021/03/08 05:09:08;;;;;;;17.65;12.35;;;;;;;23.66;19.77;98359.41;5093127;28;21215;-41
2021/03/08 05:11:35;;;;;;;18.10;12.55;;;;;;;23.66;19.82;98366.97;5073605;28;20424;-47
2021/03/08 05:14:05;;;;;;;18.08;12.38;;;;;;;23.66;19.80;98367.78;5094905;28;20080;-45
2021/03/08 05:16:32;;;;;;;17.88;12.27;;;;;;;23.66;19.86;98367.78;5095222;28;20541;-44
2021/03/08 05:19:00;;;;;;;17.50;12.52;;;;;;;23.65;19.70;98363.38;5095452;28;20021;-44
2021/03/08 05:21:27;;;;;;;19.98;11.30;;;;;;;23.64;19.87;98361.78;5095029;28;20576;-42
2021/03/08 05:23:53;;;;;;;21.85;12.13;;;;;;;23.64;19.90;98370.19;5095027;28;20028;-44
2021/03/08 05:26:18;;;;;;;20.10;11.50;;;;;;;23.64;19.97;98370.97;5094779;28;20430;-41
2021/03/08 05:28:44;;;;;;;20.13;12.05;;;;;;;23.67;19.95;98376.97;5094845;28;20031;-41
2021/03/08 05:31:10;;;;;;;18.00;11.48;;;;;;;23.69;20.01;98372.63;5076644;28;20111;-41
2021/03/08 05:33:38;;;;;;;17.35;11.02;;;;;;;23.72;19.90;98365.44;5094427;28;20024;-41
2021/03/08 05:36:04;;;;;;;19.88;11.63;;;;;;;23.75;19.82;98371.09;5095408;28;20430;-42
2021/03/08 05:38:31;;;;;;;18.50;11.07;;;;;;;23.77;19.69;98374.28;5094912;28;20028;-40
2021/03/08 05:40:59;;;;;;;19.35;10.75;;;;;;;23.81;19.83;98387.53;5094549;28;20062;-41
2021/03/08 05:43:29;;;;;;;16.83;10.68;;;;;;;23.84;19.66;98381.16;5094142;28;20024;-40
2021/03/08 05:45:58;;;;;;;16.50;10.05;;;;;;;23.87;19.72;98385.94;5094374;28;20079;-41
2021/03/08 05:49:04;;;;;;;16.75;10.55;;;;;;;23.89;19.71;98389.16;5094423;28;20031;-42
2021/03/08 05:52:04;;;;;;;16.80;9.68;;;;;;;23.91;19.83;98393.22;5104522;28;20028;-41
2021/03/08 05:55:16;;;;;;;15.82;10.13;;;;;;;23.93;19.69;98392.81;5114474;28;20513;-44
2021/03/08 05:58:13;;;;;;;15.73;9.65;;;;;;;23.93;19.69;98395.59;5114637;28;20020;-42
2021/03/08 06:00:41;;;;;;;13.48;9.90;;;;;;;23.94;19.63;98394.41;5114967;28;20234;-42
2021/03/08 06:03:40;;;;;;;12.90;8.50;;;;;;;23.95;19.55;98390.41;5114605;28;20485;-41
2021/03/08 06:06:15;;;;;;;14.15;9.65;;;;;;;23.95;19.61;98390.41;5114240;28;20471;-39
2021/03/08 06:08:59;;;;;;;14.32;8.68;;;;;;;23.93;19.58;98390.81;5114450;28;20694;-41
2021/03/08 06:11:25;;;;;;;13.73;9.27;;;;;;;23.94;19.61;98395.22;5114699;28;20023;-40
2021/03/08 06:13:54;;;;;;;13.82;9.02;;;;;;;23.94;19.50;98400.00;5114175;28;20483;-40
2021/03/08 06:16:31;;;;;;;13.20;8.77;;;;;;;23.92;19.50;98408.81;5114316;28;20073;-41
2021/03/08 06:18:57;;;;;;;12.57;8.88;;;;;;;23.94;19.47;98414.03;5114198;28;20055;-43
2021/03/08 06:21:24;;;;;;;12.48;8.38;;;;;;;23.93;19.51;98418.84;5114551;28;20026;-40
2021/03/08 06:23:52;;;;;;;13.50;8.82;;;;;;;23.92;19.48;98417.22;5114004;28;20027;-42
2021/03/08 06:26:18;;;;;;;13.27;8.50;;;;;;;23.92;19.48;98417.22;5114075;28;20047;-42
2021/03/08 06:28:43;;;;;;;13.23;8.57;;;;;;;23.92;19.34;98419.19;5114207;28;20015;-42
2021/03/08 06:31:09;;;;;;;14.40;9.00;;;;;;;23.92;19.56;98431.22;5095593;28;20089;-41
2021/03/08 06:33:36;;;;;;;12.32;8.60;;;;;;;23.93;19.51;98432.00;5113652;28;20035;-41
2021/03/08 06:36:03;;;;;;;12.70;8.38;;;;;;;23.96;19.47;98433.25;5095776;28;20031;-40
2021/03/08 06:38:31;;;;;;;12.60;8.32;;;;;;;23.95;19.48;98435.22;5114031;28;20030;-43
2021/03/08 06:40:57;;;;;;;13.40;8.18;;;;;;;23.97;19.33;98444.06;5090546;28;20016;-42
2021/03/08 06:43:22;;;;;;;12.20;8.25;;;;;;;23.99;19.41;98444.50;5093071;28;20514;-41
2021/03/08 06:45:48;;;;;;;11.68;8.15;;;;;;;24.00;19.47;98448.13;5092931;28;20044;-41
2021/03/08 06:48:13;;;;;;;12.52;8.18;;;;;;;24.03;19.38;98450.16;5093167;28;20103;-40
2021/03/08 06:50:39;;;;;;;12.73;8.32;;;;;;;24.05;19.47;98450.53;5093581;28;20472;-42
2021/03/08 06:53:04;;;;;;;13.57;8.88;;;;;;;24.06;19.42;98449.34;5093349;28;20024;-39
2021/03/08 06:55:30;;;;;;;11.25;8.32;;;;;;;24.06;19.35;98457.75;5093104;28;20028;-40
2021/03/08 06:58:15;;;;;;;13.18;8.60;;;;;;;24.07;19.36;98453.75;5093048;28;20400;-41
2021/03/08 07:00:40;;;;;;;11.93;8.27;;;;;;;24.08;19.15;98461.78;5075080;28;20073;-42
2021/03/08 07:03:06;;;;;;;11.70;8.05;;;;;;;24.08;19.38;98466.59;5093143;28;20095;-44
2021/03/08 07:05:31;;;;;;;14.13;8.70;;;;;;;24.09;19.01;98476.59;5092554;28;20071;-42
2021/03/08 07:07:58;;;;;;;12.95;8.02;;;;;;;24.09;19.20;98482.19;5074996;28;20032;-40
2021/03/08 07:10:41;;;;;;;13.35;8.00;;;;;;;24.08;19.34;98489.00;5092865;28;20036;-42
2021/03/08 07:13:09;;;;;;;11.63;8.45;;;;;;;24.09;19.20;98496.22;5092747;28;20443;-45
2021/03/08 07:15:56;;;;;;;13.57;8.48;;;;;;;24.08;19.30;98489.81;5073908;28;20066;-40
2021/03/08 07:18:22;;;;;;;12.20;8.50;;;;;;;24.08;19.31;98487.00;5092558;28;20028;-41
2021/03/08 07:21:19;;;;;;;12.75;7.93;;;;;;;24.10;19.26;98489.41;5092749;28;20108;-40
2021/03/08 07:23:47;;;;;;;11.25;7.97;;;;;;;24.11;19.16;98490.22;5092370;28;20024;-39
2021/03/08 07:26:22;;;;;;;11.77;7.85;;;;;;;24.12;19.26;98489.03;5110474;28;20024;-39
2021/03/08 07:29:14;;;;;;;11.55;8.00;;;;;;;24.15;19.20;98500.25;5112147;28;20035;-40
2021/03/08 07:31:47;;;;;;;11.07;7.53;;;;;;;24.17;19.22;98505.50;5112747;28;20023;-41
2021/03/08 07:34:14;;;;;;;11.32;7.55;;;;;;;24.19;19.18;98500.31;5112256;28;20023;-41
2021/03/08 07:36:45;;;;;;;11.65;8.05;;;;;;;24.22;19.24;98507.94;5112417;28;20062;-39
2021/03/08 07:39:12;;;;;;;12.10;7.93;;;;;;;24.24;19.02;98505.56;5112314;28;20028;-42
2021/03/08 07:41:56;;;;;;;11.77;7.47;;;;;;;24.27;19.25;98510.38;5112625;28;20062;-43
2021/03/08 07:44:25;;;;;;;11.27;7.93;;;;;;;24.30;19.12;98508.81;5111974;28;20071;-43
2021/03/08 07:46:51;;;;;;;12.73;8.13;;;;;;;24.32;19.12;98515.63;5112484;28;20490;-40
2021/03/08 07:49:37;;;;;;;10.45;7.82;;;;;;;24.34;19.17;98504.81;5112605;28;20035;-41
2021/03/08 07:52:02;;;;;;;11.00;7.40;;;;;;;24.37;18.87;98514.47;5112550;28;20096;-42
2021/03/08 07:54:28;;;;;;;11.45;8.15;;;;;;;24.38;19.08;98516.88;5112154;28;20031;-42
2021/03/08 07:56:56;;;;;;;10.27;7.57;;;;;;;24.42;19.19;98519.72;5112387;28;20019;-46
2021/03/08 07:59:21;;;;;;;12.60;8.43;;;;;;;24.44;18.98;98522.94;5112319;28;20031;-41
2021/03/08 08:01:49;;;;;;;11.55;7.90;;;;;;;24.46;18.98;98526.13;5112326;28;20066;-43
2021/03/08 08:04:14;;;;;;;10.75;7.53;;;;;;;24.47;18.78;98526.94;5111763;28;20031;-40
2021/03/08 08:06:40;;;;;;;9.30;7.10;;;;;;;24.46;18.82;98526.13;5112265;28;20360;-42
2021/03/08 08:09:09;;;;;;;10.27;7.70;;;;;;;24.46;19.03;98533.75;5112101;28;20448;-42
2021/03/08 08:11:36;;;;;;;11.52;7.65;;;;;;;24.47;19.11;98538.97;5112226;28;20020;-45
2021/03/08 08:14:02;;;;;;;10.63;7.30;;;;;;;24.46;18.93;98540.16;5111815;28;20019;-43
2021/03/08 08:16:30;;;;;;;10.20;7.32;;;;;;;24.46;18.83;98533.75;5111894;28;20479;-42
2021/03/08 08:19:05;;;;;;;10.60;7.28;;;;;;;24.47;18.89;98546.56;5111614;28;20058;-42
2021/03/08 08:21:34;;;;;;;8.95;6.70;;;;;;;24.46;19.01;98548.56;5110549;28;20031;-43
2021/03/08 08:24:03;;;;;;;10.88;7.60;;;;;;;24.46;18.82;98556.97;5111872;28;20475;-40
2021/03/08 08:26:29;;;;;;;10.20;7.18;;;;;;;24.46;18.91;98551.38;5111793;28;20024;-45
2021/03/08 08:28:55;;;;;;;10.70;7.80;;;;;;;24.45;18.94;98562.97;5111670;28;20030;-43
2021/03/08 08:31:21;;;;;;;10.68;7.38;;;;;;;24.43;18.81;98557.78;5111813;28;20032;-44
2021/03/08 08:33:47;;;;;;;10.98;7.40;;;;;;;24.43;18.97;98554.16;5093236;28;20518;-41
2021/03/08 08:36:27;;;;;;;9.40;7.35;;;;;;;24.44;18.83;98561.38;5111668;28;20027;-46
2021/03/08 08:38:53;;;;;;;10.10;7.43;;;;;;;24.45;18.81;98557.38;5111698;28;20083;-42
2021/03/08 08:41:26;;;;;;;9.73;6.72;;;;;;;24.46;18.88;98554.16;5111374;28;20031;-47
2021/03/08 08:44:07;;;;;;;9.13;6.93;;;;;;;24.49;18.95;98559.00;5111343;28;20016;-46
2021/03/08 08:46:32;;;;;;;10.35;7.13;;;;;;;24.50;18.85;98554.22;5111974;28;20032;-41
2021/03/08 08:49:12;;;;;;;9.63;7.35;;;;;;;24.53;18.91;98561.84;5111726;28;20030;-40
2021/03/08 08:51:49;;;;;;;;;;;;;;;24.57;18.76;98573.91;5112456;28;20081;-44
2021/03/08 08:54:26;;;;;;;9.75;7.40;;;;;;;24.59;18.94;98568.72;5111249;28;20367;-41
2021/03/08 08:56:52;;;;;;;9.27;6.88;;;;;;;24.60;18.85;98575.94;5111685;28;20102;-41
2021/03/08 08:59:21;;;;;;;9.35;7.22;;;;;;;24.61;18.93;98571.94;5111590;28;20110;-46
2021/03/08 09:01:49;;;;;;;11.68;7.90;;;;;;;24.63;18.72;98574.34;5111257;28;20072;-40
2021/03/08 09:04:16;;;;;;;10.63;7.50;;;;;;;24.63;18.68;98577.13;5111057;28;20024;-40
2021/03/08 09:07:02;;;;;;;10.00;7.43;;;;;;;24.64;18.87;98579.56;5111519;28;20028;-46
2021/03/08 09:09:28;;;;;;;10.80;7.15;;;;;;;24.65;18.70;98577.56;5111242;28;20385;-46
2021/03/08 09:11:56;;;;;;;9.82;6.95;;;;;;;24.66;18.87;98567.94;5111342;28;20035;-42
2021/03/08 09:14:27;;;;;;;9.48;7.45;;;;;;;24.68;18.89;98583.19;5110844;28;20034;-41
2021/03/08 09:17:20;;;;;;;9.70;7.65;;;;;;;24.71;18.76;98583.59;5111303;28;20020;-40
2021/03/08 09:20:12;;;;;;;9.35;6.90;;;;;;;24.73;18.72;98586.84;5111380;28;20148;-41
2021/03/08 09:22:49;;;;;;;9.70;7.22;;;;;;;24.76;18.72;98578.47;5111152;28;20480;-40
2021/03/08 09:25:20;;;;;;;8.75;6.60;;;;;;;24.79;18.62;98582.50;5111033;28;20027;-42
2021/03/08 09:27:49;;;;;;;8.85;6.75;;;;;;;24.81;18.71;98591.31;5111473;28;20031;-42
2021/03/08 09:30:19;;;;;;;8.75;6.85;;;;;;;24.82;18.66;98595.75;5111360;28;20024;-41
2021/03/08 09:32:53;;;;;;;8.70;7.03;;;;;;;24.86;18.49;98590.97;5111260;28;20483;-41
2021/03/08 09:35:24;;;;;;;8.15;6.40;;;;;;;24.87;18.38;98591.75;5111000;28;20031;-43
2021/03/08 09:37:52;;;;;;;8.68;6.90;;;;;;;24.89;18.37;98590.19;5111157;28;20400;-41
2021/03/08 09:40:24;;;;;;;9.70;6.85;;;;;;;24.93;18.68;98602.25;5111240;28;20031;-41
2021/03/08 09:42:50;;;;;;;8.90;6.88;;;;;;;24.95;18.66;98602.66;5111112;28;20027;-41
2021/03/08 09:45:19;;;;;;;8.23;6.20;;;;;;;25.00;18.45;98600.69;5110120;28;20047;-40
2021/03/08 09:47:45;;;;;;;8.82;6.43;;;;;;;25.03;18.68;98611.13;5111340;28;20032;-40
2021/03/08 09:50:16;;;;;;;9.75;6.55;;;;;;;25.05;18.29;98614.34;5111219;28;20026;-42
2021/03/08 09:52:43;;;;;;;8.48;6.47;;;;;;;25.04;18.34;98610.72;5112948;28;20028;-47
2021/03/08 09:55:11;;;;;;;9.73;6.90;;;;;;;25.06;18.67;98613.16;5114512;28;20024;-42
2021/03/08 09:57:38;;;;;;;10.20;6.80;;;;;;;25.07;18.57;98614.75;5114620;28;20502;-43
2021/03/08 10:00:08;;;;;;;9.40;6.68;;;;;;;25.10;18.49;98613.97;5114733;28;20024;-42
2021/03/08 10:02:34;;;;;;;8.73;6.35;;;;;;;25.12;18.34;98614.38;5114800;28;20102;-41
2021/03/08 10:05:01;;;;;;;7.82;6.50;;;;;;;25.15;18.18;98612.81;5114177;28;20042;-40
2021/03/08 10:07:27;;;;;;;9.30;6.13;;;;;;;25.18;18.48;98612.81;5114357;28;20108;-41
2021/03/08 10:10:13;;;;;;;8.48;6.30;;;;;;;25.22;18.52;98615.66;5114665;28;20020;-42
2021/03/08 10:12:39;;;;;;;9.10;6.47;;;;;;;25.24;18.12;98619.66;5114264;28;20177;-41
2021/03/08 10:15:06;;;;;;;8.60;6.53;;;;;;;25.28;18.51;98622.50;5114198;28;20459;-41
2021/03/08 10:17:33;;;;;;;8.75;6.53;;;;;;;25.29;18.66;98626.13;5114341;28;20095;-40
2021/03/08 10:20:00;;;;;;;7.72;6.30;;;;;;;25.30;18.17;98628.53;5114301;28;20532;-41
2021/03/08 10:22:36;;;;;;;9.32;6.22;;;;;;;25.31;18.51;98626.53;5114787;28;20068;-45
2021/03/08 10:25:16;;;;;;;8.65;6.25;;;;;;;25.35;18.46;98630.16;5113893;28;20034;-41
2021/03/08 10:27:42;;;;;;;8.95;7.07;;;;;;;25.37;18.38;98631.38;5114333;28;20457;-40
2021/03/08 10:30:15;;;;;;;8.45;6.38;;;;;;;25.38;18.41;98635.78;5114385;28;20027;-43
2021/03/08 10:32:42;;;;;;;8.40;6.28;;;;;;;25.40;18.07;98639.00;5113995;28;20051;-40
2021/03/08 10:35:09;;;;;;;8.85;6.38;;;;;;;25.42;18.40;98641.44;5113459;28;20027;-47
2021/03/08 10:37:38;;;;;;;8.73;6.00;;;;;;;25.45;18.23;98634.25;5114265;28;20024;-45
2021/03/08 10:40:05;;;;;;;8.50;6.45;;;;;;;25.46;18.52;98631.06;5114119;28;20016;-40
2021/03/08 10:42:31;;;;;;;7.63;6.00;;;;;;;25.46;17.97;98633.88;5114297;28;20047;-42
2021/03/08 10:44:57;;;;;;;9.20;7.10;;;;;;;25.47;18.27;98632.69;5113208;28;20491;-42
2021/03/08 10:47:22;;;;;;;9.85;6.70;;;;;;;25.48;17.87;98637.06;5113715;28;20031;-43
2021/03/08 10:49:53;;;;;;;7.75;5.90;;;;;;;25.48;17.95;98628.66;5113464;28;20077;-40
2021/03/08 10:52:19;;;;;;;8.13;6.18;;;;;;;25.48;18.23;98637.06;5113464;28;20103;-43
2021/03/08 10:54:45;;;;;;;7.85;6.10;;;;;;;25.49;18.19;98641.50;5113250;28;20539;-41
2021/03/08 10:57:11;;;;;;;8.02;5.97;;;;;;;25.49;17.90;98630.25;5113937;28;20031;-42
2021/03/08 10:59:48;;;;;;;6.97;5.85;;;;;;;25.49;18.07;98641.50;5113644;28;20032;-42
2021/03/08 11:02:15;;;;;;;7.57;6.25;;;;;;;25.49;18.08;98633.06;5113924;28;20397;-43
2021/03/08 11:04:48;;;;;;;8.23;6.35;;;;;;;25.49;17.86;98638.69;5112740;28;20027;-42
2021/03/08 11:07:14;;;;;;;8.20;5.82;;;;;;;25.48;17.97;98631.44;5113698;28;20371;-42
2021/03/08 11:09:45;;;;;;;7.72;6.15;;;;;;;25.48;17.86;98641.91;5113274;28;20019;-41
2021/03/08 11:12:20;;;;;;;8.43;6.05;;;;;;;25.46;18.02;98641.47;5113259;28;20031;-40
2021/03/08 11:14:50;;;;;;;10.88;7.32;;;;;;;25.43;18.00;98640.25;5112822;28;20028;-43
2021/03/08 11:17:17;;;;;;;13.60;8.48;;;;;;;25.41;18.04;98637.03;5113217;28;20053;-39
2021/03/08 11:19:43;;;;;;;9.60;6.95;;;;;;;25.42;18.07;98638.63;5113153;28;20020;-41
2021/03/08 11:22:13;;;;;;;9.82;7.05;;;;;;;25.41;17.86;98642.63;5113212;28;20024;-41
2021/03/08 11:24:43;;;;;;;10.88;7.07;;;;;;;25.44;18.07;98643.88;5109840;28;20388;-41
2021/03/08 11:27:17;;;;;;;9.77;7.10;;;;;;;25.44;18.18;98629.84;5112818;28;20464;-43
2021/03/08 11:30:10;;;;;;;9.52;6.70;;;;;;;25.45;18.20;98646.31;5113235;28;20031;-40
2021/03/08 11:32:38;;;;;;;9.60;7.03;;;;;;;25.45;17.79;98642.69;5102251;28;20040;-41
2021/03/08 11:35:05;;;;;;;10.25;7.30;;;;;;;25.46;17.83;98641.47;5112296;28;20024;-40